sensor_id;sensor_type;location;lat;lon;timestamp;temperature;humidity
11540;DHT22;5826;54.756;9.192;2023-06-10T00:00:54;16.10;98.90
11540;DHT22;5826;54.756;9.192;2023-06-10T00:03:21;16.10;98.90
11540;DHT22;5826;54.756;9.192;2023-06-10T00:05:49;16.10;99.00
11540;DHT22;5826;54.756;9.192;2023-06-10T00:08:14;16.10;99.00
11540;DHT22;5826;54.756;9.192;2023-06-10T00:10:45;16.10;98.90
11540;DHT22;5826;54.756;9.192;2023-06-10T00:13:10;16.10;99.00
11540;DHT22;5826;54.756;9.192;2023-06-10T00:15:39;16.10;98.90
11540;DHT22;5826;54.756;9.192;2023-06-10T00:18:05;16.10;99.00
11540;DHT22;5826;54.756;9.192;2023-06-10T00:20:30;16.10;99.10
11540;DHT22;5826;54.756;9.192;2023-06-10T00:22:57;16.00;99.10
11540;DHT22;5826;54.756;9.192;2023-06-10T00:25:24;16.00;99.00
11540;DHT22;5826;54.756;9.192;2023-06-10T00:27:51;15.90;99.00
11540;DHT22;5826;54.756;9.192;2023-06-10T00:30:16;15.90;99.20
11540;DHT22;5826;54.756;9.192;2023-06-10T00:32:42;15.90;99.20
11540;DHT22;5826;54.756;9.192;2023-06-10T00:35:07;15.80;99.30
11540;DHT22;5826;54.756;9.192;2023-06-10T00:37:33;15.90;99.20
11540;DHT22;5826;54.756;9.192;2023-06-10T00:40:04;15.80;99.10
11540;DHT22;5826;54.756;9.192;2023-06-10T00:42:29;15.80;99.10
11540;DHT22;5826;54.756;9.192;2023-06-10T00:44:55;15.80;99.20
11540;DHT22;5826;54.756;9.192;2023-06-10T00:47:21;15.80;99.20
11540;DHT22;5826;54.756;9.192;2023-06-10T00:49:47;15.70;99.30
11540;DHT22;5826;54.756;9.192;2023-06-10T00:52:14;15.70;99.30
11540;DHT22;5826;54.756;9.192;2023-06-10T00:54:41;15.80;99.40
11540;DHT22;5826;54.756;9.192;2023-06-10T00:57:07;15.70;99.20
11540;DHT22;5826;54.756;9.192;2023-06-10T00:59:32;15.70;99.20
11540;DHT22;5826;54.756;9.192;2023-06-10T01:01:59;15.80;99.30
11540;DHT22;5826;54.756;9.192;2023-06-10T01:04:24;15.70;99.20
11540;DHT22;5826;54.756;9.192;2023-06-10T01:12:16;15.70;99.30
11540;DHT22;5826;54.756;9.192;2023-06-10T01:14:44;15.60;99.50
11540;DHT22;5826;54.756;9.192;2023-06-10T01:17:10;15.60;99.20
11540;DHT22;5826;54.756;9.192;2023-06-10T01:19:36;15.60;99.30
11540;DHT22;5826;54.756;9.192;2023-06-10T01:22:03;15.60;99.30
11540;DHT22;5826;54.756;9.192;2023-06-10T01:24:29;15.60;99.20
11540;DHT22;5826;54.756;9.192;2023-06-10T01:26:59;15.60;99.30
11540;DHT22;5826;54.756;9.192;2023-06-10T01:29:33;15.50;99.40
11540;DHT22;5826;54.756;9.192;2023-06-10T01:32:17;15.50;99.30
11540;DHT22;5826;54.756;9.192;2023-06-10T01:34:44;15.50;99.70
11540;DHT22;5826;54.756;9.192;2023-06-10T01:37:12;15.50;99.30
11540;DHT22;5826;54.756;9.192;2023-06-10T01:39:39;15.70;99.40
11540;DHT22;5826;54.756;9.192;2023-06-10T01:42:05;15.40;99.30
11540;DHT22;5826;54.756;9.192;2023-06-10T01:44:32;15.40;99.40
11540;DHT22;5826;54.756;9.192;2023-06-10T01:46:57;15.30;99.40
11540;DHT22;5826;54.756;9.192;2023-06-10T01:49:23;15.30;99.50
11540;DHT22;5826;54.756;9.192;2023-06-10T01:51:49;15.30;99.50
11540;DHT22;5826;54.756;9.192;2023-06-10T01:54:15;15.20;99.50
11540;DHT22;5826;54.756;9.192;2023-06-10T01:56:40;15.10;99.50
11540;DHT22;5826;54.756;9.192;2023-06-10T01:59:06;15.10;99.60
11540;DHT22;5826;54.756;9.192;2023-06-10T02:01:32;15.00;99.60
11540;DHT22;5826;54.756;9.192;2023-06-10T02:03:57;15.00;99.80
11540;DHT22;5826;54.756;9.192;2023-06-10T02:06:23;15.00;99.80
11540;DHT22;5826;54.756;9.192;2023-06-10T02:08:48;15.00;99.80
11540;DHT22;5826;54.756;9.192;2023-06-10T02:11:14;14.90;99.80
11540;DHT22;5826;54.756;9.192;2023-06-10T02:13:40;14.90;99.90
11540;DHT22;5826;54.756;9.192;2023-06-10T02:16:05;14.90;99.80
11540;DHT22;5826;54.756;9.192;2023-06-10T02:18:34;14.90;99.90
11540;DHT22;5826;54.756;9.192;2023-06-10T02:21:00;14.90;99.90
11540;DHT22;5826;54.756;9.192;2023-06-10T02:23:25;14.90;99.90
11540;DHT22;5826;54.756;9.192;2023-06-10T02:25:51;14.90;99.90
11540;DHT22;5826;54.756;9.192;2023-06-10T02:28:16;14.80;99.90
11540;DHT22;5826;54.756;9.192;2023-06-10T02:30:42;14.90;99.90
11540;DHT22;5826;54.756;9.192;2023-06-10T02:33:08;14.80;99.90
11540;DHT22;5826;54.756;9.192;2023-06-10T02:35:37;14.80;99.90
11540;DHT22;5826;54.756;9.192;2023-06-10T02:38:03;14.80;99.90
11540;DHT22;5826;54.756;9.192;2023-06-10T02:40:29;14.80;99.90
11540;DHT22;5826;54.756;9.192;2023-06-10T02:42:54;14.70;99.90
11540;DHT22;5826;54.756;9.192;2023-06-10T02:45:20;14.70;99.90
11540;DHT22;5826;54.756;9.192;2023-06-10T02:47:46;14.70;99.90
11540;DHT22;5826;54.756;9.192;2023-06-10T02:50:16;14.70;99.90
11540;DHT22;5826;54.756;9.192;2023-06-10T02:52:44;14.60;99.90
11540;DHT22;5826;54.756;9.192;2023-06-10T02:55:10;14.60;99.90
11540;DHT22;5826;54.756;9.192;2023-06-10T02:57:35;14.60;99.90
11540;DHT22;5826;54.756;9.192;2023-06-10T03:00:01;14.60;99.90
11540;DHT22;5826;54.756;9.192;2023-06-10T03:02:29;14.50;99.90
11540;DHT22;5826;54.756;9.192;2023-06-10T03:04:57;14.50;99.80
11540;DHT22;5826;54.756;9.192;2023-06-10T03:07:23;14.50;99.90
11540;DHT22;5826;54.756;9.192;2023-06-10T03:09:49;14.40;99.90
11540;DHT22;5826;54.756;9.192;2023-06-10T03:12:15;14.40;99.90
11540;DHT22;5826;54.756;9.192;2023-06-10T03:14:41;14.40;99.90
11540;DHT22;5826;54.756;9.192;2023-06-10T03:17:06;14.30;99.90
11540;DHT22;5826;54.756;9.192;2023-06-10T03:19:34;14.30;99.90
11540;DHT22;5826;54.756;9.192;2023-06-10T03:22:08;14.30;99.90
11540;DHT22;5826;54.756;9.192;2023-06-10T03:24:34;14.30;99.90
11540;DHT22;5826;54.756;9.192;2023-06-10T03:27:01;14.30;99.90
11540;DHT22;5826;54.756;9.192;2023-06-10T03:29:27;14.20;99.90
11540;DHT22;5826;54.756;9.192;2023-06-10T03:31:52;14.20;99.90
11540;DHT22;5826;54.756;9.192;2023-06-10T03:34:18;14.20;99.90
11540;DHT22;5826;54.756;9.192;2023-06-10T03:36:43;14.20;99.90
11540;DHT22;5826;54.756;9.192;2023-06-10T03:39:10;14.10;99.90
11540;DHT22;5826;54.756;9.192;2023-06-10T03:41:35;14.30;99.90
11540;DHT22;5826;54.756;9.192;2023-06-10T03:44:01;14.20;99.90
11540;DHT22;5826;54.756;9.192;2023-06-10T03:46:26;14.20;99.90
11540;DHT22;5826;54.756;9.192;2023-06-10T03:48:52;14.20;99.90
11540;DHT22;5826;54.756;9.192;2023-06-10T03:51:17;14.20;99.90
11540;DHT22;5826;54.756;9.192;2023-06-10T03:53:43;14.30;99.90
11540;DHT22;5826;54.756;9.192;2023-06-10T03:56:08;14.30;99.90
11540;DHT22;5826;54.756;9.192;2023-06-10T03:58:34;14.30;99.90
11540;DHT22;5826;54.756;9.192;2023-06-10T04:01:00;14.30;99.90
11540;DHT22;5826;54.756;9.192;2023-06-10T04:03:25;14.30;99.90
11540;DHT22;5826;54.756;9.192;2023-06-10T04:05:51;14.30;99.90
11540;DHT22;5826;54.756;9.192;2023-06-10T04:08:17;14.30;99.90
11540;DHT22;5826;54.756;9.192;2023-06-10T04:10:43;14.30;99.90
11540;DHT22;5826;54.756;9.192;2023-06-10T04:13:08;14.40;99.90
11540;DHT22;5826;54.756;9.192;2023-06-10T04:15:35;14.40;99.90
11540;DHT22;5826;54.756;9.192;2023-06-10T04:18:00;14.40;99.90
11540;DHT22;5826;54.756;9.192;2023-06-10T04:20:28;14.40;99.90
11540;DHT22;5826;54.756;9.192;2023-06-10T04:22:54;14.40;99.90
11540;DHT22;5826;54.756;9.192;2023-06-10T04:25:20;14.40;99.90
11540;DHT22;5826;54.756;9.192;2023-06-10T04:27:45;14.50;99.90
11540;DHT22;5826;54.756;9.192;2023-06-10T04:30:11;14.50;99.90
11540;DHT22;5826;54.756;9.192;2023-06-10T04:32:37;14.60;99.90
11540;DHT22;5826;54.756;9.192;2023-06-10T04:35:03;14.60;99.90
11540;DHT22;5826;54.756;9.192;2023-06-10T04:37:28;14.70;99.90
11540;DHT22;5826;54.756;9.192;2023-06-10T04:39:54;14.70;99.90
11540;DHT22;5826;54.756;9.192;2023-06-10T04:42:20;14.80;99.90
11540;DHT22;5826;54.756;9.192;2023-06-10T04:44:45;14.80;99.90
11540;DHT22;5826;54.756;9.192;2023-06-10T04:47:11;14.80;99.90
11540;DHT22;5826;54.756;9.192;2023-06-10T04:49:36;14.90;99.90
11540;DHT22;5826;54.756;9.192;2023-06-10T04:52:02;15.00;99.80
11540;DHT22;5826;54.756;9.192;2023-06-10T04:54:29;15.00;99.80
11540;DHT22;5826;54.756;9.192;2023-06-10T04:56:55;15.00;99.80
11540;DHT22;5826;54.756;9.192;2023-06-10T04:59:20;15.10;99.90
11540;DHT22;5826;54.756;9.192;2023-06-10T05:01:46;15.20;99.80
11540;DHT22;5826;54.756;9.192;2023-06-10T05:04:11;15.20;99.60
11540;DHT22;5826;54.756;9.192;2023-06-10T05:06:37;15.30;99.70
11540;DHT22;5826;54.756;9.192;2023-06-10T05:09:02;15.40;99.50
11540;DHT22;5826;54.756;9.192;2023-06-10T05:11:28;15.40;99.50
11540;DHT22;5826;54.756;9.192;2023-06-10T05:13:53;15.50;99.50
11540;DHT22;5826;54.756;9.192;2023-06-10T05:16:19;15.50;99.20
11540;DHT22;5826;54.756;9.192;2023-06-10T05:18:44;15.60;99.20
11540;DHT22;5826;54.756;9.192;2023-06-10T05:21:10;15.60;99.20
11540;DHT22;5826;54.756;9.192;2023-06-10T05:23:37;15.60;99.00
11540;DHT22;5826;54.756;9.192;2023-06-10T05:26:02;15.70;99.20
11540;DHT22;5826;54.756;9.192;2023-06-10T05:28:28;15.70;99.20
11540;DHT22;5826;54.756;9.192;2023-06-10T05:30:53;15.80;99.10
11540;DHT22;5826;54.756;9.192;2023-06-10T05:33:19;15.80;99.10
11540;DHT22;5826;54.756;9.192;2023-06-10T05:35:44;15.80;98.80
11540;DHT22;5826;54.756;9.192;2023-06-10T05:38:10;15.80;98.80
11540;DHT22;5826;54.756;9.192;2023-06-10T05:40:35;15.90;98.70
11540;DHT22;5826;54.756;9.192;2023-06-10T05:43:01;15.90;98.80
11540;DHT22;5826;54.756;9.192;2023-06-10T05:45:27;15.90;98.70
11540;DHT22;5826;54.756;9.192;2023-06-10T05:47:52;16.00;98.70
11540;DHT22;5826;54.756;9.192;2023-06-10T05:50:18;16.00;98.80
11540;DHT22;5826;54.756;9.192;2023-06-10T05:52:43;16.00;98.70
11540;DHT22;5826;54.756;9.192;2023-06-10T05:55:09;16.10;98.70
11540;DHT22;5826;54.756;9.192;2023-06-10T05:57:35;16.20;98.60
11540;DHT22;5826;54.756;9.192;2023-06-10T06:00:00;16.30;98.60
11540;DHT22;5826;54.756;9.192;2023-06-10T06:02:26;16.30;98.50
11540;DHT22;5826;54.756;9.192;2023-06-10T06:04:51;16.40;98.30
11540;DHT22;5826;54.756;9.192;2023-06-10T06:07:17;16.50;98.30
11540;DHT22;5826;54.756;9.192;2023-06-10T06:09:46;16.60;98.20
11540;DHT22;5826;54.756;9.192;2023-06-10T06:12:11;16.70;98.20
11540;DHT22;5826;54.756;9.192;2023-06-10T06:14:38;16.70;98.10
11540;DHT22;5826;54.756;9.192;2023-06-10T06:17:06;16.80;98.10
11540;DHT22;5826;54.756;9.192;2023-06-10T06:19:32;16.90;98.00
11540;DHT22;5826;54.756;9.192;2023-06-10T06:21:58;17.00;98.10
11540;DHT22;5826;54.756;9.192;2023-06-10T06:24:23;17.00;97.90
11540;DHT22;5826;54.756;9.192;2023-06-10T06:26:49;17.10;97.80
11540;DHT22;5826;54.756;9.192;2023-06-10T06:29:14;17.10;97.80
11540;DHT22;5826;54.756;9.192;2023-06-10T06:31:40;17.20;97.80
11540;DHT22;5826;54.756;9.192;2023-06-10T06:34:05;17.30;97.90
11540;DHT22;5826;54.756;9.192;2023-06-10T06:36:31;17.40;97.80
11540;DHT22;5826;54.756;9.192;2023-06-10T06:38:56;17.40;97.70
11540;DHT22;5826;54.756;9.192;2023-06-10T06:41:25;17.50;97.60
11540;DHT22;5826;54.756;9.192;2023-06-10T06:43:51;17.50;97.70
11540;DHT22;5826;54.756;9.192;2023-06-10T06:46:16;17.60;97.70
11540;DHT22;5826;54.756;9.192;2023-06-10T06:48:42;17.60;97.60
11540;DHT22;5826;54.756;9.192;2023-06-10T06:51:07;17.70;97.60
11540;DHT22;5826;54.756;9.192;2023-06-10T06:53:33;17.70;97.70
11540;DHT22;5826;54.756;9.192;2023-06-10T06:55:58;17.70;97.60
11540;DHT22;5826;54.756;9.192;2023-06-10T06:58:24;17.80;97.60
11540;DHT22;5826;54.756;9.192;2023-06-10T07:00:49;17.80;97.60
11540;DHT22;5826;54.756;9.192;2023-06-10T07:03:15;17.90;97.60
11540;DHT22;5826;54.756;9.192;2023-06-10T07:05:43;17.90;97.50
11540;DHT22;5826;54.756;9.192;2023-06-10T07:08:09;18.10;97.50
11540;DHT22;5826;54.756;9.192;2023-06-10T07:10:34;18.10;97.30
11540;DHT22;5826;54.756;9.192;2023-06-10T07:13:08;18.20;97.40
11540;DHT22;5826;54.756;9.192;2023-06-10T07:15:46;18.20;97.50
11540;DHT22;5826;54.756;9.192;2023-06-10T07:18:22;18.20;97.50
11540;DHT22;5826;54.756;9.192;2023-06-10T07:20:53;18.30;97.40
11540;DHT22;5826;54.756;9.192;2023-06-10T07:23:21;18.30;97.50
11540;DHT22;5826;54.756;9.192;2023-06-10T07:25:46;18.40;97.30
11540;DHT22;5826;54.756;9.192;2023-06-10T07:28:12;18.50;97.40
11540;DHT22;5826;54.756;9.192;2023-06-10T07:30:37;18.60;97.30
11540;DHT22;5826;54.756;9.192;2023-06-10T07:33:03;18.60;97.30
11540;DHT22;5826;54.756;9.192;2023-06-10T07:35:28;18.70;97.30
11540;DHT22;5826;54.756;9.192;2023-06-10T07:37:54;18.70;97.30
11540;DHT22;5826;54.756;9.192;2023-06-10T07:40:19;18.80;97.40
11540;DHT22;5826;54.756;9.192;2023-06-10T07:42:45;18.90;97.10
11540;DHT22;5826;54.756;9.192;2023-06-10T07:45:10;18.90;97.30
11540;DHT22;5826;54.756;9.192;2023-06-10T07:47:36;19.00;97.10
11540;DHT22;5826;54.756;9.192;2023-06-10T07:50:01;19.10;97.20
11540;DHT22;5826;54.756;9.192;2023-06-10T07:52:27;19.10;97.00
11540;DHT22;5826;54.756;9.192;2023-06-10T07:54:53;19.20;97.20
11540;DHT22;5826;54.756;9.192;2023-06-10T07:57:19;19.40;97.00
11540;DHT22;5826;54.756;9.192;2023-06-10T07:59:45;19.30;97.00
11540;DHT22;5826;54.756;9.192;2023-06-10T08:02:11;19.40;96.90
11540;DHT22;5826;54.756;9.192;2023-06-10T08:04:36;19.50;97.00
11540;DHT22;5826;54.756;9.192;2023-06-10T08:07:02;19.50;97.00
11540;DHT22;5826;54.756;9.192;2023-06-10T08:09:28;19.50;96.80
11540;DHT22;5826;54.756;9.192;2023-06-10T08:11:53;19.50;96.80
11540;DHT22;5826;54.756;9.192;2023-06-10T08:14:19;19.60;96.90
11540;DHT22;5826;54.756;9.192;2023-06-10T08:16:44;19.60;97.10
11540;DHT22;5826;54.756;9.192;2023-06-10T08:19:11;19.70;97.00
11540;DHT22;5826;54.756;9.192;2023-06-10T08:21:36;19.70;96.90
11540;DHT22;5826;54.756;9.192;2023-06-10T08:24:03;19.70;96.80
11540;DHT22;5826;54.756;9.192;2023-06-10T08:26:28;19.80;96.90
11540;DHT22;5826;54.756;9.192;2023-06-10T08:28:54;19.90;96.80
11540;DHT22;5826;54.756;9.192;2023-06-10T08:31:20;19.90;96.80
11540;DHT22;5826;54.756;9.192;2023-06-10T08:33:46;20.00;96.80
11540;DHT22;5826;54.756;9.192;2023-06-10T08:36:11;20.10;97.00
11540;DHT22;5826;54.756;9.192;2023-06-10T08:38:37;20.20;96.90
11540;DHT22;5826;54.756;9.192;2023-06-10T08:41:05;20.30;96.80
11540;DHT22;5826;54.756;9.192;2023-06-10T08:43:41;20.40;96.70
11540;DHT22;5826;54.756;9.192;2023-06-10T08:46:09;20.40;96.60
11540;DHT22;5826;54.756;9.192;2023-06-10T08:48:39;20.30;96.60
11540;DHT22;5826;54.756;9.192;2023-06-10T08:51:07;20.40;96.60
11540;DHT22;5826;54.756;9.192;2023-06-10T08:53:37;20.40;96.70
11540;DHT22;5826;54.756;9.192;2023-06-10T08:56:04;20.50;96.80
11540;DHT22;5826;54.756;9.192;2023-06-10T08:58:32;20.60;96.70
11540;DHT22;5826;54.756;9.192;2023-06-10T09:00:59;20.60;96.80
11540;DHT22;5826;54.756;9.192;2023-06-10T09:03:25;20.70;96.60
11540;DHT22;5826;54.756;9.192;2023-06-10T09:05:51;20.80;96.70
11540;DHT22;5826;54.756;9.192;2023-06-10T09:08:17;20.80;96.50
11540;DHT22;5826;54.756;9.192;2023-06-10T09:10:42;20.90;96.60
11540;DHT22;5826;54.756;9.192;2023-06-10T09:13:08;21.00;96.60
11540;DHT22;5826;54.756;9.192;2023-06-10T09:15:33;21.00;96.40
11540;DHT22;5826;54.756;9.192;2023-06-10T09:17:59;21.10;96.50
11540;DHT22;5826;54.756;9.192;2023-06-10T09:20:25;21.20;96.40
11540;DHT22;5826;54.756;9.192;2023-06-10T09:22:50;21.30;96.50
11540;DHT22;5826;54.756;9.192;2023-06-10T09:25:16;21.30;96.50
11540;DHT22;5826;54.756;9.192;2023-06-10T09:27:52;21.40;96.40
11540;DHT22;5826;54.756;9.192;2023-06-10T09:30:26;21.50;96.40
11540;DHT22;5826;54.756;9.192;2023-06-10T09:32:53;21.50;96.40
11540;DHT22;5826;54.756;9.192;2023-06-10T09:35:21;21.60;96.30
11540;DHT22;5826;54.756;9.192;2023-06-10T09:37:51;21.70;96.30
11540;DHT22;5826;54.756;9.192;2023-06-10T09:40:16;21.70;96.30
11540;DHT22;5826;54.756;9.192;2023-06-10T09:42:42;21.70;96.30
11540;DHT22;5826;54.756;9.192;2023-06-10T09:45:07;21.80;96.30
11540;DHT22;5826;54.756;9.192;2023-06-10T09:47:33;21.80;96.30
11540;DHT22;5826;54.756;9.192;2023-06-10T09:49:59;22.00;96.40
11540;DHT22;5826;54.756;9.192;2023-06-10T09:52:26;22.10;96.30
11540;DHT22;5826;54.756;9.192;2023-06-10T09:55:01;22.20;96.30
11540;DHT22;5826;54.756;9.192;2023-06-10T09:57:31;22.30;96.20
11540;DHT22;5826;54.756;9.192;2023-06-10T09:59:58;22.40;96.20
11540;DHT22;5826;54.756;9.192;2023-06-10T10:02:23;22.40;96.00
11540;DHT22;5826;54.756;9.192;2023-06-10T10:04:49;22.40;96.20
11540;DHT22;5826;54.756;9.192;2023-06-10T10:07:14;22.50;96.30
11540;DHT22;5826;54.756;9.192;2023-06-10T10:09:41;22.70;96.10
11540;DHT22;5826;54.756;9.192;2023-06-10T10:12:11;22.80;96.00
11540;DHT22;5826;54.756;9.192;2023-06-10T10:14:38;22.80;95.90
11540;DHT22;5826;54.756;9.192;2023-06-10T10:17:10;22.90;95.90
11540;DHT22;5826;54.756;9.192;2023-06-10T10:19:58;22.90;95.90
11540;DHT22;5826;54.756;9.192;2023-06-10T10:22:29;23.00;95.80
11540;DHT22;5826;54.756;9.192;2023-06-10T10:25:01;23.10;95.90
11540;DHT22;5826;54.756;9.192;2023-06-10T10:27:30;23.20;95.90
11540;DHT22;5826;54.756;9.192;2023-06-10T10:29:59;23.30;95.70
11540;DHT22;5826;54.756;9.192;2023-06-10T10:32:30;23.30;95.70
11540;DHT22;5826;54.756;9.192;2023-06-10T10:35:11;23.40;95.70
11540;DHT22;5826;54.756;9.192;2023-06-10T10:37:38;23.40;95.70
11540;DHT22;5826;54.756;9.192;2023-06-10T10:40:05;23.60;95.60
11540;DHT22;5826;54.756;9.192;2023-06-10T10:42:31;23.60;95.60
11540;DHT22;5826;54.756;9.192;2023-06-10T10:44:58;23.70;95.50
11540;DHT22;5826;54.756;9.192;2023-06-10T10:47:27;23.80;95.80
11540;DHT22;5826;54.756;9.192;2023-06-10T10:49:54;23.80;95.30
11540;DHT22;5826;54.756;9.192;2023-06-10T10:52:24;23.90;95.40
11540;DHT22;5826;54.756;9.192;2023-06-10T10:54:53;24.00;95.50
11540;DHT22;5826;54.756;9.192;2023-06-10T10:57:20;24.00;95.30
11540;DHT22;5826;54.756;9.192;2023-06-10T11:02:34;24.20;95.60
11540;DHT22;5826;54.756;9.192;2023-06-10T11:05:01;24.30;95.20
11540;DHT22;5826;54.756;9.192;2023-06-10T11:07:28;24.40;95.20
11540;DHT22;5826;54.756;9.192;2023-06-10T11:10:10;24.50;95.10
11540;DHT22;5826;54.756;9.192;2023-06-10T11:12:53;24.70;95.10
11540;DHT22;5826;54.756;9.192;2023-06-10T11:15:21;24.80;95.10
11540;DHT22;5826;54.756;9.192;2023-06-10T11:18:10;24.90;94.90
11540;DHT22;5826;54.756;9.192;2023-06-10T11:21:00;24.90;94.70
11540;DHT22;5826;54.756;9.192;2023-06-10T11:23:30;25.00;94.70
11540;DHT22;5826;54.756;9.192;2023-06-10T11:26:20;25.00;94.70
11540;DHT22;5826;54.756;9.192;2023-06-10T11:29:05;25.00;94.60
11540;DHT22;5826;54.756;9.192;2023-06-10T11:31:32;25.10;94.80
11540;DHT22;5826;54.756;9.192;2023-06-10T11:34:03;25.10;94.60
11540;DHT22;5826;54.756;9.192;2023-06-10T11:36:30;25.10;94.70
11540;DHT22;5826;54.756;9.192;2023-06-10T11:41:27;25.30;94.80
11540;DHT22;5826;54.756;9.192;2023-06-10T11:43:53;25.50;94.50
11540;DHT22;5826;54.756;9.192;2023-06-10T11:46:21;25.50;94.50
11540;DHT22;5826;54.756;9.192;2023-06-10T11:49:00;25.50;94.30
11540;DHT22;5826;54.756;9.192;2023-06-10T11:51:27;25.60;94.30
11540;DHT22;5826;54.756;9.192;2023-06-10T11:53:53;25.70;94.40
11540;DHT22;5826;54.756;9.192;2023-06-10T11:56:20;25.70;94.20
11540;DHT22;5826;54.756;9.192;2023-06-10T12:01:25;25.70;94.20
11540;DHT22;5826;54.756;9.192;2023-06-10T12:04:08;25.80;94.20
11540;DHT22;5826;54.756;9.192;2023-06-10T12:06:50;25.80;94.20
11540;DHT22;5826;54.756;9.192;2023-06-10T12:11:50;26.00;94.10
11540;DHT22;5826;54.756;9.192;2023-06-10T12:14:16;26.00;93.90
11540;DHT22;5826;54.756;9.192;2023-06-10T12:16:48;26.00;93.90
11540;DHT22;5826;54.756;9.192;2023-06-10T12:19:14;26.10;94.00
11540;DHT22;5826;54.756;9.192;2023-06-10T12:21:40;26.10;93.90
11540;DHT22;5826;54.756;9.192;2023-06-10T12:24:10;26.20;93.70
11540;DHT22;5826;54.756;9.192;2023-06-10T12:26:43;26.20;93.80
11540;DHT22;5826;54.756;9.192;2023-06-10T12:32:01;26.40;93.50
11540;DHT22;5826;54.756;9.192;2023-06-10T12:34:39;26.40;93.50
11540;DHT22;5826;54.756;9.192;2023-06-10T12:37:09;26.40;93.70
11540;DHT22;5826;54.756;9.192;2023-06-10T12:39:38;26.30;93.70
11540;DHT22;5826;54.756;9.192;2023-06-10T12:42:04;26.30;93.90
11540;DHT22;5826;54.756;9.192;2023-06-10T12:44:32;26.50;93.50
11540;DHT22;5826;54.756;9.192;2023-06-10T12:46:58;26.70;93.80
11540;DHT22;5826;54.756;9.192;2023-06-10T12:49:24;26.70;93.40
11540;DHT22;5826;54.756;9.192;2023-06-10T12:51:51;26.70;93.40
11540;DHT22;5826;54.756;9.192;2023-06-10T12:54:17;26.80;93.30
11540;DHT22;5826;54.756;9.192;2023-06-10T12:56:42;26.80;93.50
11540;DHT22;5826;54.756;9.192;2023-06-10T12:59:08;26.90;93.50
11540;DHT22;5826;54.756;9.192;2023-06-10T13:01:34;27.00;93.20
11540;DHT22;5826;54.756;9.192;2023-06-10T13:03:59;27.00;93.40
11540;DHT22;5826;54.756;9.192;2023-06-10T13:06:25;27.10;93.10
11540;DHT22;5826;54.756;9.192;2023-06-10T13:08:50;27.20;93.20
11540;DHT22;5826;54.756;9.192;2023-06-10T13:11:16;27.20;93.20
11540;DHT22;5826;54.756;9.192;2023-06-10T13:13:42;27.20;93.00
11540;DHT22;5826;54.756;9.192;2023-06-10T13:16:08;27.30;93.00
11540;DHT22;5826;54.756;9.192;2023-06-10T13:18:33;27.40;92.70
11540;DHT22;5826;54.756;9.192;2023-06-10T13:21:03;27.50;92.60
11540;DHT22;5826;54.756;9.192;2023-06-10T13:23:28;27.50;92.90
11540;DHT22;5826;54.756;9.192;2023-06-10T13:25:54;27.60;92.70
11540;DHT22;5826;54.756;9.192;2023-06-10T13:28:20;27.60;92.60
11540;DHT22;5826;54.756;9.192;2023-06-10T13:30:46;27.70;92.60
11540;DHT22;5826;54.756;9.192;2023-06-10T13:33:12;27.80;92.40
11540;DHT22;5826;54.756;9.192;2023-06-10T13:35:37;27.80;92.60
11540;DHT22;5826;54.756;9.192;2023-06-10T13:38:03;27.80;92.60
11540;DHT22;5826;54.756;9.192;2023-06-10T13:40:29;27.90;92.50
11540;DHT22;5826;54.756;9.192;2023-06-10T13:42:54;27.90;92.60
11540;DHT22;5826;54.756;9.192;2023-06-10T13:45:20;27.90;92.10
11540;DHT22;5826;54.756;9.192;2023-06-10T13:47:45;28.10;92.40
11540;DHT22;5826;54.756;9.192;2023-06-10T13:50:11;28.10;92.20
11540;DHT22;5826;54.756;9.192;2023-06-10T13:52:38;28.20;91.90
11540;DHT22;5826;54.756;9.192;2023-06-10T13:55:04;28.20;92.30
11540;DHT22;5826;54.756;9.192;2023-06-10T13:57:30;28.20;92.00
11540;DHT22;5826;54.756;9.192;2023-06-10T13:59:55;28.20;92.00
11540;DHT22;5826;54.756;9.192;2023-06-10T14:02:21;28.30;92.00
11540;DHT22;5826;54.756;9.192;2023-06-10T14:04:47;28.30;92.20
11540;DHT22;5826;54.756;9.192;2023-06-10T14:07:12;28.30;92.20
11540;DHT22;5826;54.756;9.192;2023-06-10T14:09:38;28.30;92.00
11540;DHT22;5826;54.756;9.192;2023-06-10T14:12:04;28.40;92.10
11540;DHT22;5826;54.756;9.192;2023-06-10T14:14:30;28.50;92.00
11540;DHT22;5826;54.756;9.192;2023-06-10T14:16:56;28.60;91.90
11540;DHT22;5826;54.756;9.192;2023-06-10T14:19:22;28.60;92.00
11540;DHT22;5826;54.756;9.192;2023-06-10T14:21:47;28.60;91.70
11540;DHT22;5826;54.756;9.192;2023-06-10T14:24:14;28.70;91.80
11540;DHT22;5826;54.756;9.192;2023-06-10T14:26:40;28.70;91.70
11540;DHT22;5826;54.756;9.192;2023-06-10T14:29:05;28.80;91.80
11540;DHT22;5826;54.756;9.192;2023-06-10T14:31:32;28.90;91.90
11540;DHT22;5826;54.756;9.192;2023-06-10T14:33:58;29.00;91.60
11540;DHT22;5826;54.756;9.192;2023-06-10T14:36:23;29.20;91.40
11540;DHT22;5826;54.756;9.192;2023-06-10T14:38:49;29.20;91.30
11540;DHT22;5826;54.756;9.192;2023-06-10T14:41:15;29.20;91.70
11540;DHT22;5826;54.756;9.192;2023-06-10T14:43:40;29.20;91.60
11540;DHT22;5826;54.756;9.192;2023-06-10T14:46:06;29.30;91.40
11540;DHT22;5826;54.756;9.192;2023-06-10T14:48:31;29.30;91.30
11540;DHT22;5826;54.756;9.192;2023-06-10T14:50:57;29.40;91.50
11540;DHT22;5826;54.756;9.192;2023-06-10T14:53:22;29.40;91.50
11540;DHT22;5826;54.756;9.192;2023-06-10T14:55:48;29.40;91.40
11540;DHT22;5826;54.756;9.192;2023-06-10T14:58:13;29.40;91.90
11540;DHT22;5826;54.756;9.192;2023-06-10T15:00:39;29.30;91.90
11540;DHT22;5826;54.756;9.192;2023-06-10T15:03:04;29.20;91.90
11540;DHT22;5826;54.756;9.192;2023-06-10T15:05:30;29.30;91.60
11540;DHT22;5826;54.756;9.192;2023-06-10T15:07:55;29.40;91.60
11540;DHT22;5826;54.756;9.192;2023-06-10T15:10:21;29.40;91.20
11540;DHT22;5826;54.756;9.192;2023-06-10T15:12:47;29.50;91.60
11540;DHT22;5826;54.756;9.192;2023-06-10T15:15:12;29.40;91.30
11540;DHT22;5826;54.756;9.192;2023-06-10T15:17:38;29.30;91.50
11540;DHT22;5826;54.756;9.192;2023-06-10T15:20:04;29.20;91.80
11540;DHT22;5826;54.756;9.192;2023-06-10T15:22:30;29.10;91.30
11540;DHT22;5826;54.756;9.192;2023-06-10T15:24:55;29.40;91.50
11540;DHT22;5826;54.756;9.192;2023-06-10T15:27:22;29.10;91.10
11540;DHT22;5826;54.756;9.192;2023-06-10T15:29:48;29.00;91.60
11540;DHT22;5826;54.756;9.192;2023-06-10T15:32:13;28.90;91.40
11540;DHT22;5826;54.756;9.192;2023-06-10T15:34:39;28.90;91.60
11540;DHT22;5826;54.756;9.192;2023-06-10T15:37:04;28.80;91.30
11540;DHT22;5826;54.756;9.192;2023-06-10T15:39:30;28.70;91.20
11540;DHT22;5826;54.756;9.192;2023-06-10T15:41:56;28.70;91.70
11540;DHT22;5826;54.756;9.192;2023-06-10T15:44:22;28.70;91.70
11540;DHT22;5826;54.756;9.192;2023-06-10T15:46:47;28.50;92.10
11540;DHT22;5826;54.756;9.192;2023-06-10T15:49:13;28.30;91.70
11540;DHT22;5826;54.756;9.192;2023-06-10T15:51:38;28.20;92.10
11540;DHT22;5826;54.756;9.192;2023-06-10T15:54:04;28.10;91.80
11540;DHT22;5826;54.756;9.192;2023-06-10T15:56:29;28.00;92.20
11540;DHT22;5826;54.756;9.192;2023-06-10T15:58:55;27.90;92.10
11540;DHT22;5826;54.756;9.192;2023-06-10T16:01:21;27.80;92.10